Skip Navigation LinksHome page > Weather > Current weather Skip Navigation Links

Current Weather

Heathrow, London

For information only: do not use for flight planning or navigation.
Latest weather
Observation time Saturday, October 25, 2014 4:20 PM BST
Local time Saturday, October 25, 2014 4:57 PM BST
Flight conditions Visual Meteorological Conditions
Winds
Wind direction West-Southwest (240°)
Wind speed 13 mph
Visibility 6.2 mi.
Sky condition
Ceiling unlimited
Cloud layer scattered clouds 4,200 ft.
Temperature 59°F
Dewpoint 46°F
Altimeter 30.09 in.Hg
Derived measurements
Relative humidity 63%
Density altitude -40 ft.
Remarks
Corrected report.
No significant changes expected in the next two hours.
METAR COR EGLL 251520Z 24011KT 9999 SCT042 15/08 Q1019 NOSIG

Settings

Location code

InnerDrive.Weather 4.0.5399.0 Release CLR 4.0.30319.34014
Copyright ©2014 Inner Drive Technology. All rights reserved. Portions Copyright ©1986-2014 David Braverman.

Find weather

Site navigation


Skip Navigation Links

Place info

Page info

PayPal - The safer, easier way to pay online!

Return home.

Copyright ©2014 Inner Drive Technology. Purveyors of fine, hand-crafted computer software. Page printed 2014-10-25T15:57:37 UTC.